createdAt,value
2022-11-22T00:02:19.585Z,7.62
2022-11-22T00:07:21.264Z,7.52
2022-11-22T00:12:22.793Z,7.58
2022-11-22T00:17:24.245Z,7.58
2022-11-22T00:22:25.897Z,7.57
2022-11-22T00:27:27.397Z,7.37
2022-11-22T00:32:28.767Z,7.55
2022-11-22T00:37:30.177Z,7.69
2022-11-22T00:42:31.733Z,7.74
2022-11-22T00:47:33.172Z,7.67
2022-11-22T00:52:34.658Z,7.63
2022-11-22T00:57:36.190Z,7.62
2022-11-22T01:02:37.732Z,7.68
2022-11-22T01:07:39.415Z,7.67
2022-11-22T01:12:40.937Z,7.84
2022-11-22T01:17:42.524Z,7.58
2022-11-22T01:22:43.981Z,7.77
2022-11-22T01:27:45.561Z,7.61
2022-11-22T01:32:47.070Z,7.55
2022-11-22T01:37:48.589Z,7.39
2022-11-22T01:42:56.053Z,7.39
2022-11-22T01:48:01.213Z,7.35
2022-11-22T01:53:06.806Z,7.35
2022-11-22T01:58:09.421Z,7.33
2022-11-22T02:03:14.982Z,7.29
2022-11-22T02:08:35.360Z,7.38
2022-11-22T02:13:42.412Z,7.36
2022-11-22T02:18:43.954Z,7.37
2022-11-22T02:24:14.434Z,7.28
2022-11-22T02:29:16.236Z,7.34
2022-11-22T02:34:17.746Z,7.38
2022-11-22T02:39:31.887Z,7.30
2022-11-22T02:44:34.049Z,7.36
2022-11-22T02:49:35.686Z,7.39
2022-11-22T02:54:37.178Z,7.31
2022-11-22T02:59:38.801Z,7.28
2022-11-22T03:04:40.265Z,7.26
2022-11-22T03:09:41.734Z,7.37
2022-11-22T03:14:43.282Z,7.36
2022-11-22T03:19:44.973Z,7.15
2022-11-22T03:24:46.517Z,6.95
2022-11-22T03:29:48.036Z,7.05
2022-11-22T03:34:49.603Z,7.14
2022-11-22T03:39:51.289Z,7.17
2022-11-22T03:44:52.800Z,6.86
2022-11-22T03:49:54.300Z,6.93
2022-11-22T03:54:56.453Z,6.92
2022-11-22T03:59:57.968Z,6.85
2022-11-22T04:04:59.389Z,6.63
2022-11-22T04:10:00.830Z,6.75
2022-11-22T04:15:02.857Z,6.78
2022-11-22T04:20:04.827Z,6.58
2022-11-22T04:25:06.519Z,6.58
2022-11-22T04:30:08.334Z,6.34
2022-11-22T04:35:09.754Z,6.24
2022-11-22T04:40:11.404Z,6.24
2022-11-22T04:45:12.802Z,6.15
2022-11-22T04:50:14.634Z,6.15
2022-11-22T04:55:16.157Z,5.80
2022-11-22T05:00:18.049Z,5.76
2022-11-22T05:05:19.633Z,5.81
2022-11-22T05:10:26.056Z,5.99
2022-11-22T05:15:28.390Z,6.23
2022-11-22T05:20:29.862Z,6.06
2022-11-22T05:25:31.298Z,5.97
2022-11-22T05:30:32.726Z,5.94
2022-11-22T05:35:34.318Z,6.28
2022-11-22T05:40:35.735Z,5.91
2022-11-22T05:45:37.187Z,6.00
2022-11-22T05:50:38.676Z,5.97
2022-11-22T05:55:40.113Z,5.91
2022-11-22T06:00:41.889Z,5.64
2022-11-22T06:05:43.330Z,5.89
2022-11-22T06:10:44.798Z,5.65
2022-11-22T06:15:46.260Z,5.82
2022-11-22T06:20:47.683Z,5.83
2022-11-22T06:25:59.489Z,6.03
2022-11-22T06:31:17.292Z,6.11
2022-11-22T06:36:21.691Z,5.90
2022-11-22T06:41:28.634Z,5.99
2022-11-22T06:46:30.068Z,6.23
2022-11-22T06:51:32.244Z,6.25
2022-11-22T06:56:37.894Z,6.18
2022-11-22T07:01:39.447Z,6.40
2022-11-22T07:06:40.923Z,6.38
2022-11-22T07:11:42.356Z,6.45
2022-11-22T07:16:43.783Z,6.59
2022-11-22T07:21:45.313Z,6.82
2022-11-22T07:26:46.744Z,6.82
2022-11-22T07:31:48.268Z,6.83
2022-11-22T07:36:53.111Z,6.75
2022-11-22T07:41:57.278Z,7.06
2022-11-22T07:46:58.723Z,6.91
2022-11-22T07:52:00.195Z,6.96
2022-11-22T07:57:01.733Z,6.79
2022-11-22T08:02:03.310Z,6.77
2022-11-22T08:07:05.062Z,6.65
2022-11-22T08:12:06.815Z,6.90
2022-11-22T08:17:08.231Z,6.95
2022-11-22T08:22:09.910Z,6.89
2022-11-22T08:27:11.346Z,6.73
2022-11-22T08:32:12.803Z,6.77
2022-11-22T08:37:14.267Z,6.74
2022-11-22T08:42:15.709Z,6.69
2022-11-22T08:47:17.400Z,6.77
2022-11-22T08:52:18.877Z,6.66
2022-11-22T08:57:20.414Z,6.95
2022-11-22T09:02:21.810Z,6.79
2022-11-22T09:12:47.666Z,6.95
2022-11-22T09:17:49.104Z,7.33
2022-11-22T09:22:50.543Z,7.50
2022-11-22T09:27:52.010Z,7.47
2022-11-22T09:32:53.380Z,7.48
2022-11-22T09:37:54.808Z,7.39
2022-11-22T09:43:16.912Z,7.65
2022-11-22T09:48:47.825Z,7.70
2022-11-22T09:53:54.953Z,7.74
2022-11-22T09:59:16.641Z,7.95
2022-11-22T10:04:24.857Z,8.24
2022-11-22T10:09:35.866Z,8.25
2022-11-22T10:14:57.578Z,8.30
2022-11-22T10:20:11.849Z,8.28
2022-11-22T10:25:24.301Z,8.36
2022-11-22T10:30:25.958Z,8.55
2022-11-22T10:35:46.201Z,8.48
2022-11-22T10:41:16.641Z,8.42
2022-11-22T10:46:31.974Z,8.47
2022-11-22T10:51:56.135Z,8.47
2022-11-22T10:57:12.917Z,8.59
2022-11-22T11:02:54.050Z,8.24
2022-11-22T11:08:04.151Z,8.21
2022-11-22T11:13:16.800Z,8.37
2022-11-22T11:18:47.111Z,8.52
2022-11-22T11:23:48.654Z,8.68
2022-11-22T11:28:50.303Z,8.73
2022-11-22T11:33:51.764Z,8.67
2022-11-22T11:38:54.742Z,8.79
2022-11-22T11:43:59.038Z,8.77
2022-11-22T11:49:17.666Z,8.71
2022-11-22T11:54:21.805Z,8.66
2022-11-22T11:59:41.945Z,8.84
2022-11-22T12:05:25.315Z,9.01
2022-11-22T12:10:45.183Z,8.96
2022-11-22T12:16:20.499Z,8.81
2022-11-22T12:21:33.603Z,8.61
2022-11-22T12:26:35.199Z,8.66
2022-11-22T12:31:40.807Z,8.38
2022-11-22T12:37:05.577Z,8.74
2022-11-22T12:42:16.457Z,8.69
2022-11-22T12:47:28.715Z,8.64
2022-11-22T12:52:39.083Z,8.82
2022-11-22T12:57:56.617Z,8.75
2022-11-22T13:03:12.878Z,8.60
2022-11-22T13:08:16.871Z,8.79
2022-11-22T13:13:32.310Z,8.58
2022-11-22T13:18:39.622Z,8.67
2022-11-22T13:24:14.886Z,8.76
2022-11-22T13:29:23.440Z,8.83
2022-11-22T13:34:26.095Z,8.76
2022-11-22T13:39:27.684Z,8.73
2022-11-22T13:44:32.030Z,8.83
2022-11-22T13:49:39.253Z,8.95
2022-11-22T13:54:51.797Z,8.87
2022-11-22T14:00:11.442Z,8.93
2022-11-22T14:05:25.711Z,8.90
2022-11-22T14:10:48.938Z,8.90
2022-11-22T14:16:08.912Z,8.87
2022-11-22T14:21:26.961Z,8.81
2022-11-22T14:26:36.429Z,8.84
2022-11-22T14:31:39.010Z,8.81
2022-11-22T14:36:40.920Z,8.80
2022-11-22T14:41:43.401Z,8.73
2022-11-22T14:47:04.286Z,8.72
2022-11-22T14:52:30.461Z,8.80
2022-11-22T14:57:33.821Z,8.47
2022-11-22T15:03:07.722Z,8.77
2022-11-22T15:09:11.059Z,8.79
2022-11-22T15:14:17.884Z,8.76
2022-11-22T15:57:54.925Z,8.40
2022-11-22T16:02:59.718Z,8.38
2022-11-22T16:08:02.547Z,8.38
2022-11-22T16:13:34.507Z,8.43
2022-11-22T16:18:36.312Z,8.54
2022-11-22T16:23:39.391Z,8.56
2022-11-22T16:28:40.865Z,8.37
2022-11-22T16:33:42.360Z,8.51
2022-11-22T16:38:44.596Z,8.62
2022-11-22T16:43:46.605Z,8.56
2022-11-22T16:48:48.650Z,8.52
2022-11-22T16:53:51.692Z,8.44
2022-11-22T16:58:55.557Z,8.50
2022-11-22T17:03:57.862Z,8.59
2022-11-22T17:09:00.309Z,8.61
2022-11-22T17:14:01.845Z,8.63
2022-11-22T17:19:03.343Z,8.64
2022-11-22T17:24:09.322Z,8.61
2022-11-22T17:29:18.312Z,8.70
2022-11-22T17:34:32.830Z,8.71
2022-11-22T17:39:34.551Z,8.70
2022-11-22T17:44:35.987Z,8.53
2022-11-22T17:49:37.476Z,8.67
2022-11-22T17:54:38.954Z,8.59
2022-11-22T17:59:40.389Z,8.67
2022-11-22T18:04:41.837Z,8.64
2022-11-22T18:09:43.223Z,8.53
2022-11-22T18:14:44.643Z,8.76
2022-11-22T18:19:46.277Z,8.78
2022-11-22T18:24:47.986Z,8.77
2022-11-22T18:29:49.552Z,8.78
2022-11-22T18:34:51.029Z,8.81
2022-11-22T18:39:52.698Z,8.73
2022-11-22T18:44:54.126Z,8.73
2022-11-22T18:49:55.538Z,8.63
2022-11-22T18:54:56.947Z,8.56
2022-11-22T18:59:58.407Z,8.57
2022-11-22T19:04:59.873Z,8.46
2022-11-22T19:10:01.420Z,8.41
2022-11-22T19:15:02.973Z,8.53
2022-11-22T19:20:04.760Z,8.51
2022-11-22T19:25:06.853Z,8.53
2022-11-22T19:30:08.898Z,8.57
2022-11-22T19:35:10.418Z,8.51
2022-11-22T19:40:12.007Z,8.52
2022-11-22T19:45:13.472Z,8.55
2022-11-22T19:50:14.956Z,8.55
2022-11-22T19:55:16.513Z,8.40
2022-11-22T20:00:18.067Z,8.54
2022-11-22T20:05:20.272Z,8.46
2022-11-22T20:10:21.707Z,8.59
2022-11-22T20:15:23.075Z,8.62
2022-11-22T20:20:24.529Z,8.46
2022-11-22T20:25:26.106Z,8.46
2022-11-22T20:30:27.509Z,8.41
2022-11-22T20:35:29.122Z,8.37
2022-11-22T20:40:30.618Z,8.28
2022-11-22T20:45:32.068Z,8.10
2022-11-22T20:50:34.718Z,7.99
2022-11-22T20:55:36.174Z,8.03
2022-11-22T21:00:38.494Z,8.07
2022-11-22T21:05:39.976Z,8.17
2022-11-22T21:10:41.436Z,8.15
2022-11-22T21:15:43.846Z,8.15
2022-11-22T21:20:45.380Z,8.26
2022-11-22T21:25:46.917Z,8.20
2022-11-22T21:30:53.097Z,8.23
2022-11-22T21:35:54.621Z,8.13
2022-11-22T21:41:17.300Z,8.04
2022-11-22T21:46:21.242Z,8.18
2022-11-22T21:51:23.116Z,8.26
2022-11-22T21:56:25.243Z,8.29
2022-11-22T22:01:27.265Z,8.30
2022-11-22T22:06:29.006Z,8.53
2022-11-22T22:11:30.443Z,8.47
2022-11-22T22:16:31.892Z,8.41
2022-11-22T22:21:33.644Z,8.39
2022-11-22T22:26:35.149Z,8.60
2022-11-22T22:31:36.674Z,8.50
2022-11-22T22:36:38.144Z,8.60
2022-11-22T22:41:39.720Z,8.59
2022-11-22T22:46:41.242Z,8.49
2022-11-22T22:51:42.719Z,8.54
2022-11-22T22:56:44.337Z,8.66
2022-11-22T23:01:45.845Z,8.67
2022-11-22T23:06:47.380Z,8.76
2022-11-22T23:11:48.825Z,8.72
2022-11-22T23:16:55.908Z,8.79
2022-11-22T23:21:59.043Z,8.79
2022-11-22T23:27:00.630Z,8.84
2022-11-22T23:32:02.997Z,8.87
2022-11-22T23:37:04.445Z,8.85
2022-11-22T23:42:06.006Z,8.87
2022-11-22T23:47:07.518Z,8.92
2022-11-22T23:52:08.959Z,8.90
2022-11-22T23:57:10.482Z,8.76
